createdAt,value
2023-12-26T00:01:28.332Z,9.36
2023-12-26T00:04:01.629Z,9.35
2023-12-26T00:06:30.797Z,9.30
2023-12-26T00:09:02.268Z,9.28
2023-12-26T00:11:31.826Z,9.29
2023-12-26T00:14:02.630Z,9.29
2023-12-26T00:16:35.003Z,9.26
2023-12-26T00:19:08.800Z,9.26
2023-12-26T00:21:39.101Z,9.25
2023-12-26T00:24:12.515Z,9.21
2023-12-26T00:26:46.016Z,9.19
2023-12-26T00:29:18.612Z,9.21
2023-12-26T00:31:46.934Z,9.26
2023-12-26T00:34:16.324Z,9.16
2023-12-26T00:36:44.483Z,9.11
2023-12-26T00:39:15.760Z,9.16
2023-12-26T00:41:52.148Z,9.10
2023-12-26T00:44:27.011Z,9.16
2023-12-26T00:46:57.913Z,9.10
2023-12-26T00:49:24.814Z,9.12
2023-12-26T00:51:56.577Z,9.07
2023-12-26T00:54:28.235Z,9.12
2023-12-26T00:57:02.127Z,9.04
2023-12-26T00:59:31.588Z,9.05
2023-12-26T01:02:09.267Z,9.08
2023-12-26T01:04:41.320Z,9.08
2023-12-26T01:07:10.839Z,9.05
2023-12-26T01:09:45.329Z,9.06
2023-12-26T01:12:17.743Z,9.08
2023-12-26T01:14:57.539Z,9.10
2023-12-26T01:17:26.963Z,9.08
2023-12-26T01:20:04.231Z,9.10
2023-12-26T01:22:36.845Z,9.09
2023-12-26T01:25:07.424Z,9.08
2023-12-26T01:30:22.012Z,9.11
2023-12-26T01:35:38.075Z,9.13
2023-12-26T01:38:16.380Z,9.13
2023-12-26T01:40:48.772Z,9.06
2023-12-26T01:43:24.343Z,9.01
2023-12-26T01:45:59.282Z,9.05
2023-12-26T01:48:31.926Z,9.05
2023-12-26T01:51:03.531Z,9.03
2023-12-26T01:53:35.501Z,9.04
2023-12-26T01:56:05.996Z,9.08
2023-12-26T01:58:41.893Z,9.02
2023-12-26T02:01:13.341Z,8.99
2023-12-26T02:03:44.475Z,8.98
2023-12-26T02:06:14.647Z,9.00
2023-12-26T02:08:49.661Z,8.99
2023-12-26T02:11:20.371Z,9.04
2023-12-26T02:13:51.528Z,9.00
2023-12-26T02:16:27.636Z,8.97
2023-12-26T02:19:01.948Z,8.96
2023-12-26T02:21:32.608Z,8.94
2023-12-26T02:24:04.301Z,8.94
2023-12-26T02:26:44.993Z,8.93
2023-12-26T02:29:24.662Z,8.90
2023-12-26T02:34:40.613Z,8.85
2023-12-26T02:37:11.454Z,8.87
2023-12-26T02:39:46.425Z,8.89
2023-12-26T02:42:21.739Z,8.85
2023-12-26T02:45:03.192Z,8.83
2023-12-26T02:47:32.492Z,8.81
2023-12-26T02:52:52.979Z,8.77
2023-12-26T02:55:25.630Z,8.78
2023-12-26T02:57:54.338Z,8.75
2023-12-26T03:00:24.280Z,8.77
2023-12-26T03:02:55.380Z,8.73
2023-12-26T03:05:45.410Z,8.71
2023-12-26T03:11:23.930Z,8.65
2023-12-26T03:13:52.125Z,8.66
2023-12-26T03:16:24.062Z,8.61
2023-12-26T03:19:04.938Z,8.62
2023-12-26T03:21:35.327Z,8.58
2023-12-26T03:24:03.532Z,8.54
2023-12-26T03:26:33.658Z,8.51
2023-12-26T03:29:01.797Z,8.53
2023-12-26T03:31:29.889Z,8.54
2023-12-26T03:34:01.622Z,8.55
2023-12-26T03:36:30.867Z,8.51
2023-12-26T03:38:58.878Z,8.51
2023-12-26T03:41:27.022Z,8.51
2023-12-26T03:43:57.809Z,8.48
2023-12-26T03:46:28.840Z,8.49
2023-12-26T03:49:00.394Z,8.51
2023-12-26T03:51:28.779Z,8.51
2023-12-26T03:53:57.376Z,8.51
2023-12-26T03:56:25.654Z,8.45
2023-12-26T03:58:54.977Z,8.36
2023-12-26T04:01:27.023Z,8.36
2023-12-26T04:03:56.267Z,8.34
2023-12-26T04:06:25.443Z,8.36
2023-12-26T04:08:54.100Z,8.34
2023-12-26T04:11:24.489Z,8.39
2023-12-26T04:13:55.055Z,8.36
2023-12-26T04:16:24.700Z,8.37
2023-12-26T04:18:52.606Z,8.42
2023-12-26T04:21:22.230Z,8.41
2023-12-26T04:23:50.113Z,8.44
2023-12-26T04:26:21.225Z,8.44
2023-12-26T04:28:51.293Z,8.45
2023-12-26T04:31:19.529Z,8.46
2023-12-26T04:33:50.638Z,8.47
2023-12-26T04:36:19.316Z,8.49
2023-12-26T04:38:47.283Z,8.50
2023-12-26T04:41:15.470Z,8.50
2023-12-26T04:43:44.101Z,8.55
2023-12-26T04:46:21.749Z,8.53
2023-12-26T04:48:51.263Z,8.57
2023-12-26T04:51:20.741Z,8.55
2023-12-26T04:53:50.001Z,8.57
2023-12-26T04:56:19.269Z,8.58
2023-12-26T04:58:49.510Z,8.55
2023-12-26T05:01:19.744Z,8.59
2023-12-26T05:03:48.578Z,8.58
2023-12-26T05:06:21.745Z,8.59
2023-12-26T05:08:50.118Z,8.60
2023-12-26T05:11:25.118Z,8.58
2023-12-26T05:13:53.508Z,8.58
2023-12-26T05:16:21.515Z,8.58
2023-12-26T05:18:50.079Z,8.58
2023-12-26T05:21:24.169Z,8.57
2023-12-26T05:23:52.549Z,8.56
2023-12-26T05:26:25.030Z,8.51
2023-12-26T05:28:53.435Z,8.48
2023-12-26T05:31:22.073Z,8.46
2023-12-26T05:33:50.061Z,8.42
2023-12-26T05:36:18.802Z,8.45
2023-12-26T05:38:48.493Z,8.45
2023-12-26T05:41:20.805Z,8.45
2023-12-26T05:43:49.569Z,8.47
2023-12-26T05:46:19.210Z,8.46
2023-12-26T05:48:48.120Z,8.43
2023-12-26T05:51:16.674Z,8.40
2023-12-26T05:53:45.170Z,8.44
2023-12-26T05:56:14.991Z,8.45
2023-12-26T05:58:44.049Z,8.42
2023-12-26T06:01:12.111Z,8.42
2023-12-26T06:03:43.687Z,8.45
2023-12-26T06:06:13.732Z,8.48
2023-12-26T06:08:42.810Z,8.48
2023-12-26T06:11:11.650Z,8.44
2023-12-26T06:13:43.096Z,8.46
2023-12-26T06:16:12.516Z,8.45
2023-12-26T06:18:42.753Z,8.46
2023-12-26T06:21:10.979Z,8.46
2023-12-26T06:23:41.070Z,8.44
2023-12-26T06:26:11.171Z,8.42
2023-12-26T06:28:40.613Z,8.38
2023-12-26T06:31:15.311Z,8.43
2023-12-26T06:33:43.755Z,8.42
2023-12-26T06:36:19.765Z,8.42
2023-12-26T06:39:04.999Z,8.45
2023-12-26T06:41:39.755Z,8.51
2023-12-26T06:44:16.271Z,8.55
2023-12-26T06:46:49.770Z,8.54
2023-12-26T06:49:20.287Z,8.54
2023-12-26T06:51:52.964Z,8.53
2023-12-26T06:54:21.771Z,8.57
2023-12-26T06:56:51.194Z,8.57
2023-12-26T06:59:23.879Z,8.56
2023-12-26T07:01:56.405Z,8.59
2023-12-26T07:04:26.288Z,8.60
2023-12-26T07:07:01.403Z,8.61
2023-12-26T07:09:30.475Z,8.61
2023-12-26T07:12:00.145Z,8.64
2023-12-26T07:14:34.829Z,8.66
2023-12-26T07:17:05.995Z,8.67
2023-12-26T07:19:37.103Z,8.70
2023-12-26T07:22:08.137Z,8.69
2023-12-26T07:24:39.428Z,8.76
2023-12-26T07:27:07.751Z,8.73
2023-12-26T07:29:38.238Z,8.80
2023-12-26T07:32:08.815Z,8.82
2023-12-26T07:34:43.079Z,8.81
2023-12-26T07:37:14.593Z,8.80
2023-12-26T07:39:42.576Z,8.82
2023-12-26T07:42:11.410Z,8.85
2023-12-26T07:44:43.377Z,8.85
2023-12-26T07:47:12.549Z,8.85
2023-12-26T07:49:40.585Z,8.85
2023-12-26T07:52:09.334Z,8.86
2023-12-26T07:54:37.253Z,8.88
2023-12-26T07:57:06.836Z,8.83
2023-12-26T07:59:35.117Z,8.88
2023-12-26T08:02:04.729Z,8.85
2023-12-26T08:04:32.628Z,8.92
2023-12-26T08:07:01.245Z,8.91
2023-12-26T08:09:30.907Z,8.91
2023-12-26T08:11:58.973Z,8.90
2023-12-26T08:14:27.110Z,8.95
2023-12-26T08:16:54.912Z,8.94
2023-12-26T08:19:24.358Z,8.90
2023-12-26T08:21:52.507Z,8.92
2023-12-26T08:24:20.340Z,8.88
2023-12-26T08:26:48.204Z,8.87
2023-12-26T08:29:15.951Z,8.89
2023-12-26T08:31:43.800Z,8.90
2023-12-26T08:34:11.719Z,8.86
2023-12-26T08:36:41.041Z,8.85
2023-12-26T08:39:09.256Z,8.87
2023-12-26T08:41:37.199Z,8.81
2023-12-26T08:44:05.231Z,8.79
2023-12-26T08:46:33.172Z,8.73
2023-12-26T08:49:01.511Z,8.68
2023-12-26T08:51:29.551Z,8.72
2023-12-26T08:53:58.790Z,8.75
2023-12-26T08:56:26.637Z,8.76
2023-12-26T08:58:54.636Z,8.71
2023-12-26T09:01:22.559Z,8.73
2023-12-26T09:03:50.739Z,8.83
2023-12-26T09:06:18.875Z,8.93
2023-12-26T09:08:46.815Z,8.82
2023-12-26T09:11:16.121Z,8.79
2023-12-26T09:13:47.609Z,8.77
2023-12-26T09:16:15.954Z,8.79
2023-12-26T09:18:44.540Z,8.85
2023-12-26T09:21:12.963Z,8.94
2023-12-26T09:23:40.942Z,8.98
2023-12-26T09:26:09.185Z,9.02
2023-12-26T09:28:40.304Z,9.11
2023-12-26T09:31:08.525Z,9.06
2023-12-26T09:33:36.543Z,9.08
2023-12-26T09:36:04.814Z,9.05
2023-12-26T09:38:33.011Z,9.00
2023-12-26T09:41:01.265Z,8.95
2023-12-26T09:43:29.732Z,8.96
2023-12-26T09:45:59.057Z,9.00
2023-12-26T09:48:27.419Z,9.01
2023-12-26T09:50:57.019Z,9.00
2023-12-26T09:53:26.102Z,9.02
2023-12-26T09:55:55.033Z,8.99
2023-12-26T09:58:23.546Z,9.04
2023-12-26T10:00:52.429Z,9.00
2023-12-26T10:03:22.310Z,9.06
2023-12-26T10:05:55.204Z,9.07
2023-12-26T10:08:23.493Z,9.07
2023-12-26T10:10:51.754Z,9.06
2023-12-26T10:13:19.623Z,9.05
2023-12-26T10:15:47.661Z,9.09
2023-12-26T10:18:15.960Z,9.11
2023-12-26T10:20:45.380Z,9.14
2023-12-26T10:23:14.231Z,9.13
2023-12-26T10:25:44.856Z,9.15
2023-12-26T10:28:17.509Z,9.16
2023-12-26T10:30:45.498Z,9.12
2023-12-26T10:33:13.937Z,9.13
2023-12-26T10:35:41.975Z,9.15
2023-12-26T10:38:12.787Z,9.19
2023-12-26T10:40:40.647Z,9.18
2023-12-26T10:43:08.900Z,9.25
2023-12-26T10:45:36.797Z,9.27
2023-12-26T10:48:07.062Z,9.35
2023-12-26T10:50:35.215Z,9.41
2023-12-26T10:53:17.422Z,9.45
2023-12-26T10:55:47.773Z,9.38
2023-12-26T10:58:20.622Z,9.41
2023-12-26T11:00:53.263Z,9.33
2023-12-26T11:04:16.029Z,9.34
2023-12-26T11:07:38.712Z,9.36
2023-12-26T11:11:01.584Z,9.28
2023-12-26T11:14:24.469Z,9.26
2023-12-26T11:17:47.994Z,9.25
2023-12-26T11:21:11.070Z,9.22
2023-12-26T11:24:33.959Z,9.25
2023-12-26T11:27:56.913Z,9.30
2023-12-26T11:31:19.817Z,9.31
2023-12-26T11:34:43.118Z,9.39
2023-12-26T11:38:06.162Z,9.44
2023-12-26T11:41:29.354Z,9.50
2023-12-26T11:44:52.358Z,9.43
2023-12-26T11:48:15.523Z,9.36
2023-12-26T11:51:38.761Z,9.37
2023-12-26T11:55:01.475Z,9.45
2023-12-26T11:58:23.978Z,9.42
2023-12-26T12:01:46.609Z,9.39
2023-12-26T12:05:09.379Z,9.43
2023-12-26T12:08:32.572Z,9.42
2023-12-26T12:11:55.166Z,9.33
2023-12-26T12:15:18.252Z,9.32
2023-12-26T12:18:41.273Z,9.25
2023-12-26T12:22:04.350Z,9.17
2023-12-26T12:25:26.852Z,9.15
2023-12-26T12:28:49.782Z,9.12
2023-12-26T12:32:12.759Z,9.10
2023-12-26T12:35:35.620Z,9.05
2023-12-26T12:38:58.593Z,9.12
2023-12-26T12:42:21.632Z,9.20
2023-12-26T12:45:44.456Z,9.18
2023-12-26T12:49:07.770Z,9.13
2023-12-26T12:52:31.218Z,9.13
2023-12-26T12:55:54.357Z,9.07
2023-12-26T12:59:17.370Z,9.04
2023-12-26T13:02:40.419Z,9.08
2023-12-26T13:06:03.427Z,9.03
2023-12-26T13:09:25.948Z,9.05
2023-12-26T13:12:49.181Z,9.03
2023-12-26T13:16:11.986Z,9.02
2023-12-26T13:19:35.723Z,9.00
2023-12-26T13:22:58.950Z,9.07
2023-12-26T13:26:21.939Z,9.05
2023-12-26T13:29:44.824Z,9.01
2023-12-26T13:33:07.980Z,8.99
2023-12-26T13:36:30.969Z,8.98
2023-12-26T13:39:53.994Z,8.94
2023-12-26T13:43:16.800Z,8.91
2023-12-26T13:46:39.742Z,8.92
2023-12-26T13:50:02.462Z,8.93
2023-12-26T13:52:32.137Z,8.86
2023-12-26T13:54:58.968Z,8.87
2023-12-26T13:57:27.008Z,8.88
2023-12-26T13:59:56.338Z,8.88
2023-12-26T14:02:23.532Z,8.90
2023-12-26T14:05:28.808Z,8.83
2023-12-26T14:08:34.042Z,8.79
2023-12-26T14:11:39.313Z,8.82
2023-12-26T14:14:44.454Z,8.80
2023-12-26T14:17:49.517Z,8.83
2023-12-26T14:20:54.773Z,8.78
2023-12-26T14:24:00.021Z,8.74
2023-12-26T14:27:07.274Z,8.72
2023-12-26T14:30:12.621Z,8.77
2023-12-26T14:33:21.170Z,8.80
2023-12-26T14:36:26.738Z,8.77
2023-12-26T14:39:32.076Z,8.73
2023-12-26T14:42:37.418Z,8.58
2023-12-26T14:45:42.285Z,8.45
2023-12-26T14:48:47.382Z,8.41
2023-12-26T14:51:52.425Z,8.33
2023-12-26T14:54:57.627Z,8.20
2023-12-26T14:58:02.672Z,8.12
2023-12-26T15:01:07.956Z,8.06
2023-12-26T15:03:43.358Z,8.02
2023-12-26T15:06:18.874Z,8.03
2023-12-26T15:08:46.843Z,8.02
2023-12-26T15:11:17.748Z,8.06
2023-12-26T15:13:52.201Z,8.04
2023-12-26T15:16:28.741Z,8.06
2023-12-26T15:18:59.355Z,8.04
2023-12-26T15:21:27.445Z,8.09
2023-12-26T15:23:57.039Z,8.07
2023-12-26T15:26:24.925Z,8.08
2023-12-26T15:28:52.949Z,8.06
2023-12-26T15:31:22.298Z,8.07
2023-12-26T15:33:51.496Z,8.10
2023-12-26T15:36:22.049Z,8.10
2023-12-26T15:38:50.735Z,8.18
2023-12-26T15:41:20.158Z,8.16
2023-12-26T15:43:48.120Z,8.17
2023-12-26T15:46:18.280Z,8.18
2023-12-26T15:48:46.426Z,8.22
2023-12-26T15:51:15.185Z,8.25
2023-12-26T15:53:45.524Z,8.28
2023-12-26T15:56:14.325Z,8.30
2023-12-26T15:58:42.959Z,8.34
2023-12-26T16:01:11.707Z,8.35
2023-12-26T16:03:39.739Z,8.33
2023-12-26T16:06:09.157Z,8.41
2023-12-26T16:08:38.476Z,8.43
2023-12-26T16:11:10.908Z,8.41
2023-12-26T16:13:38.964Z,8.41
2023-12-26T16:16:07.263Z,8.40
2023-12-26T16:18:36.368Z,8.41
2023-12-26T16:21:04.725Z,8.41
2023-12-26T16:23:32.749Z,8.42
2023-12-26T16:26:00.727Z,8.39
2023-12-26T16:28:29.913Z,8.38
2023-12-26T16:31:00.052Z,8.35
2023-12-26T16:33:28.677Z,8.34
2023-12-26T16:35:58.028Z,8.38
2023-12-26T16:38:26.117Z,8.33
2023-12-26T16:40:56.413Z,8.21
2023-12-26T16:43:24.560Z,8.25
2023-12-26T16:45:53.751Z,8.26
2023-12-26T16:48:22.247Z,8.28
2023-12-26T16:50:50.641Z,8.27
2023-12-26T16:53:18.882Z,8.33
2023-12-26T16:55:46.923Z,8.32
2023-12-26T16:58:15.042Z,8.25
2023-12-26T17:00:43.094Z,8.28
2023-12-26T17:03:12.638Z,8.23
2023-12-26T17:05:41.101Z,8.20
2023-12-26T17:08:09.198Z,8.21
2023-12-26T17:10:37.462Z,8.24
2023-12-26T17:13:05.789Z,8.25
2023-12-26T17:15:33.709Z,8.20
2023-12-26T17:18:01.718Z,8.20
2023-12-26T17:20:31.705Z,8.17
2023-12-26T17:22:59.956Z,8.18
2023-12-26T17:25:27.931Z,8.18
2023-12-26T17:27:56.280Z,8.18
2023-12-26T17:30:24.454Z,8.15
2023-12-26T17:32:52.672Z,8.17
2023-12-26T17:35:20.988Z,8.21
2023-12-26T17:37:50.229Z,8.23
2023-12-26T17:40:18.154Z,8.23
2023-12-26T17:42:46.401Z,8.18
2023-12-26T17:45:14.606Z,8.24
2023-12-26T17:47:42.823Z,8.17
2023-12-26T17:50:11.812Z,8.12
2023-12-26T17:52:39.995Z,8.11
2023-12-26T17:55:10.773Z,8.08
2023-12-26T17:57:38.917Z,8.07
2023-12-26T18:00:08.484Z,8.09
2023-12-26T18:02:36.554Z,8.04
2023-12-26T18:05:05.534Z,8.09
2023-12-26T18:07:35.019Z,8.10
2023-12-26T18:10:03.513Z,8.11
2023-12-26T18:12:32.874Z,8.20
2023-12-26T18:15:01.024Z,8.14
2023-12-26T18:17:29.281Z,8.13
2023-12-26T18:19:57.461Z,8.17
2023-12-26T18:22:25.963Z,8.15
2023-12-26T18:24:55.369Z,8.15
2023-12-26T18:27:24.280Z,8.17
2023-12-26T18:29:54.900Z,8.22
2023-12-26T18:32:23.096Z,8.20
2023-12-26T18:34:51.119Z,8.15
2023-12-26T18:37:19.112Z,8.10
2023-12-26T18:39:48.251Z,8.07
2023-12-26T18:42:16.276Z,8.08
2023-12-26T18:44:46.622Z,8.10
2023-12-26T18:47:16.131Z,8.04
2023-12-26T18:49:44.122Z,8.08
2023-12-26T18:52:12.577Z,8.07
2023-12-26T18:54:41.582Z,8.07
2023-12-26T18:57:09.781Z,8.03
2023-12-26T18:59:37.688Z,8.04
2023-12-26T19:02:06.762Z,8.03
2023-12-26T19:04:36.574Z,8.03
2023-12-26T19:07:05.845Z,8.00
2023-12-26T19:09:34.511Z,8.03
2023-12-26T19:12:06.439Z,8.02
2023-12-26T19:14:34.848Z,8.02
2023-12-26T19:17:03.912Z,7.98
2023-12-26T19:19:32.062Z,7.96
2023-12-26T19:22:01.379Z,7.96
2023-12-26T19:24:29.465Z,7.89
2023-12-26T19:26:58.458Z,7.83
2023-12-26T19:29:26.805Z,7.82
2023-12-26T19:31:54.784Z,7.81
2023-12-26T19:34:22.832Z,7.78
2023-12-26T19:36:50.941Z,7.78
2023-12-26T19:39:20.417Z,7.79
2023-12-26T19:41:48.928Z,7.89
2023-12-26T19:44:18.589Z,7.88
2023-12-26T19:46:46.711Z,7.83
2023-12-26T19:49:15.022Z,7.85
2023-12-26T19:51:45.098Z,7.84
2023-12-26T19:54:13.119Z,7.96
2023-12-26T19:56:43.241Z,7.93
2023-12-26T19:59:13.957Z,7.94
2023-12-26T20:01:43.191Z,7.97
2023-12-26T20:04:12.022Z,7.94
2023-12-26T20:06:46.310Z,7.89
2023-12-26T20:09:21.019Z,7.85
2023-12-26T20:11:51.222Z,7.91
2023-12-26T20:14:23.267Z,7.89
2023-12-26T20:16:52.297Z,7.78
2023-12-26T20:19:27.269Z,7.79
2023-12-26T20:21:56.366Z,7.79
2023-12-26T20:24:28.540Z,7.80
2023-12-26T20:26:59.390Z,7.91
2023-12-26T20:29:28.624Z,7.89
2023-12-26T20:31:58.630Z,7.92
2023-12-26T20:34:27.915Z,7.93
2023-12-26T20:37:00.432Z,7.96
2023-12-26T20:39:30.230Z,7.95
2023-12-26T20:42:03.245Z,7.93
2023-12-26T20:44:31.348Z,7.94
2023-12-26T20:49:49.166Z,7.82
2023-12-26T20:52:17.502Z,7.82
2023-12-26T20:54:47.288Z,7.77
2023-12-26T20:57:17.662Z,7.72
2023-12-26T20:59:46.698Z,7.72
2023-12-26T21:02:17.050Z,7.75
2023-12-26T21:04:45.386Z,7.77
2023-12-26T21:07:16.463Z,7.82
2023-12-26T21:09:45.699Z,7.77
2023-12-26T21:12:15.413Z,7.81
2023-12-26T21:14:44.780Z,7.74
2023-12-26T21:17:13.197Z,7.71
2023-12-26T21:19:44.206Z,7.66
2023-12-26T21:22:12.951Z,7.61
2023-12-26T21:24:43.139Z,7.59
2023-12-26T21:27:13.053Z,7.61
2023-12-26T21:29:41.702Z,7.60
2023-12-26T21:32:24.846Z,7.66
2023-12-26T21:34:55.762Z,7.64
2023-12-26T21:37:23.989Z,7.64
2023-12-26T21:39:53.213Z,7.64
2023-12-26T21:42:22.578Z,7.62
2023-12-26T21:44:56.001Z,7.49
2023-12-26T21:47:26.669Z,7.48
2023-12-26T21:50:00.816Z,7.51
2023-12-26T21:52:34.074Z,7.41
2023-12-26T21:55:02.499Z,7.39
2023-12-26T21:57:31.391Z,7.32
2023-12-26T22:00:02.365Z,7.27
2023-12-26T22:02:32.217Z,7.25
2023-12-26T22:05:03.932Z,7.24
2023-12-26T22:07:35.808Z,7.24
2023-12-26T22:10:13.910Z,7.20
2023-12-26T22:12:43.784Z,7.15
2023-12-26T22:15:20.901Z,7.09
2023-12-26T22:17:56.252Z,7.10
2023-12-26T22:20:28.270Z,7.11
2023-12-26T22:22:59.490Z,7.11
2023-12-26T22:25:32.632Z,7.11
2023-12-26T22:28:03.552Z,7.07
2023-12-26T22:30:34.475Z,7.21
2023-12-26T22:33:07.428Z,7.21
2023-12-26T22:35:40.749Z,7.17
2023-12-26T22:38:12.859Z,7.20
2023-12-26T22:40:45.733Z,7.26
2023-12-26T22:43:22.737Z,7.14
2023-12-26T22:45:52.685Z,7.17
2023-12-26T22:48:22.617Z,7.30
2023-12-26T22:50:58.040Z,7.30
2023-12-26T22:53:30.421Z,7.28
2023-12-26T22:56:04.541Z,7.26
2023-12-26T22:58:34.220Z,7.32
2023-12-26T23:01:05.297Z,7.26
2023-12-26T23:03:40.601Z,7.17
2023-12-26T23:06:11.042Z,7.25
2023-12-26T23:08:41.954Z,7.15
2023-12-26T23:11:20.491Z,7.16
2023-12-26T23:13:50.653Z,7.20
2023-12-26T23:16:23.399Z,7.13
2023-12-26T23:19:00.112Z,7.17
2023-12-26T23:21:31.637Z,7.14
2023-12-26T23:24:04.954Z,7.28
2023-12-26T23:26:42.205Z,7.31
2023-12-26T23:29:15.463Z,7.32
2023-12-26T23:31:47.326Z,7.25
2023-12-26T23:34:30.352Z,7.28
2023-12-26T23:37:08.711Z,7.29
2023-12-26T23:39:37.365Z,7.28
2023-12-26T23:42:08.108Z,7.33
2023-12-26T23:44:39.213Z,7.29
2023-12-26T23:47:08.580Z,7.30
2023-12-26T23:49:38.601Z,7.34
2023-12-26T23:52:11.205Z,7.32
2023-12-26T23:54:43.326Z,7.31
2023-12-26T23:57:11.392Z,7.31
2023-12-26T23:59:45.369Z,7.36
